Time;durP1;ratioP1;P1;durP2;ratioP2;P2;SDS_P1;SDS_P2;PMS_P1;PMS_P2;Temp;Humidity;BMP_temperature;BMP_pressure;BME280_temperature;BME280_humidity;BME280_pressure;Samples;Min_cycle;Max_cycle;Signal;HPM_P1;HPM_P2
2023/01/04 00:00:01;;;;;;;;;;;;;;;10.93;77.36;102355.25;5073205;28;19932;-84
2023/01/04 00:02:27;;;;;;;;;;;;;;;10.93;77.31;102366.63;5073472;28;20550;-85
2023/01/04 00:04:52;;;;;;;;;;;;;;;10.93;77.43;102363.09;5072072;28;19970;-85
2023/01/04 00:07:17;;;;;;;;;;;;;;;10.89;77.54;102372.41;5088937;28;19921;-85
2023/01/04 00:09:43;;;;;;;;;;;;;;;10.91;77.40;102364.69;5093675;28;20376;-85
2023/01/04 00:12:08;;;;;;;;;;;;;;;10.91;77.10;102359.47;5089018;28;20450;-85
2023/01/04 00:14:34;;;;;;;;;;;;;;;10.90;77.32;102358.56;5055182;28;20023;-85
2023/01/04 00:16:59;;;;;;;;;;;;;;;10.88;77.42;102360.13;5073132;28;19970;-85
2023/01/04 00:19:24;;;;;;;;;;;;;;;10.89;77.11;102364.56;5071730;28;20015;-85
2023/01/04 00:21:50;;;;;;;;;;;;;;;10.89;77.27;102361.94;5059450;28;20312;-85
2023/01/04 00:24:15;;;;;;;;;;;;;;;10.88;77.23;102370.59;5073028;28;19923;-85
2023/01/04 00:26:41;;;;;;;;;;;;;;;10.89;77.39;102379.34;5093163;28;19916;-85
2023/01/04 00:29:08;;;;;;;;;;;;;;;10.89;77.21;102377.63;5072384;28;20309;-85
2023/01/04 00:31:34;;;;;;;;;;;;;;;10.89;77.11;102379.34;5088319;28;20374;-85
2023/01/04 00:34:00;;;;;;;;;;;;;;;10.89;76.96;102379.34;5088278;28;19951;-85
2023/01/04 00:36:26;;;;;;;;;;;;;;;10.89;77.02;102380.25;5071778;28;19965;-85
2023/01/04 00:39:05;;;;;;;;;;;;;;;10.89;77.02;102374.09;5071920;28;20006;-85
2023/01/04 00:41:47;;;;;;;;;;;;;;;10.88;76.81;102377.50;5072706;28;19916;-85
2023/01/04 00:44:13;;;;;;;;;;;;;;;10.85;76.85;102380.78;5087671;28;19954;-85
2023/01/04 00:46:39;;;;;;;;;;;;;;;10.88;77.10;102378.44;5100357;28;19970;-85
2023/01/04 00:49:05;;;;;;;;;;;;;;;10.88;76.95;102380.09;5088129;28;19920;-85
2023/01/04 00:51:31;;;;;;;;;;;;;;;10.86;76.96;102387.84;5083295;28;19924;-85
2023/01/04 00:53:57;;;;;;;;;;;;;;;10.88;76.93;102388.88;5085428;28;19943;-85
2023/01/04 00:56:22;;;;;;;;;;;;;;;10.87;77.14;102392.28;5090453;28;19923;-85
2023/01/04 00:58:48;;;;;;;;;;;;;;;10.86;76.74;102393.06;5087172;28;19924;-85
2023/01/04 01:01:13;;;;;;;;;;;;;;;10.88;76.77;102390.56;5087798;28;19924;-85
2023/01/04 01:03:39;;;;;;;;;;;;;;;10.84;76.93;102392.03;5087685;28;19921;-85
2023/01/04 01:06:05;;;;;;;;;;;;;;;10.87;77.17;102384.44;5087913;28;19928;-86
2023/01/04 01:08:31;;;;;;;;;;;;;;;10.84;77.26;102378.97;5094341;28;20317;-85
2023/01/04 01:11:01;;;;;;;;;;;;;;;10.87;76.77;102379.19;5087610;28;19916;-85
2023/01/04 01:13:26;;;;;;;;;;;;;;;10.85;76.88;102383.41;5087768;28;19916;-85
2023/01/04 01:15:52;;;;;;;;;;;;;;;10.87;77.15;102375.69;5090022;28;19920;-85
2023/01/04 01:18:17;;;;;;;;;;;;;;;10.87;77.19;102393.97;5070878;28;20341;-84
2023/01/04 01:20:43;;;;;;;;;;;;;;;10.85;77.12;102388.63;5087604;28;19996;-85
2023/01/04 01:23:10;;;;;;;;;;;;;;;10.87;77.09;102386.13;5086264;28;19920;-82
2023/01/04 01:25:36;;;;;;;;;;;;;;;10.86;77.11;102390.47;5054230;28;20019;-85
2023/01/04 01:28:01;;;;;;;;;;;;;;;10.85;76.80;102392.94;5086808;28;20368;-85
2023/01/04 01:30:26;;;;;;;;;;;;;;;10.85;76.92;102386.00;5071087;28;19916;-84
2023/01/04 01:32:52;;;;;;;;;;;;;;;10.86;76.92;102397.38;5087000;28;19916;-85
2023/01/04 01:35:17;;;;;;;;;;;;;;;10.85;76.77;102387.72;5071117;28;19923;-85
2023/01/04 01:37:43;;;;;;;;;;;;;;;10.85;76.55;102393.84;5086573;28;20405;-83
2023/01/04 01:40:08;;;;;;;;;;;;;;;10.87;76.77;102387.03;5086121;28;20355;-83
2023/01/04 01:42:34;;;;;;;;;;;;;;;10.85;76.56;102383.41;5070632;28;20386;-83
2023/01/04 01:45:09;;;;;;;;;;;;;;;10.83;76.99;102386.69;5071395;28;19928;-84
2023/01/04 01:47:40;;;;;;;;;;;;;;;10.82;76.76;102384.88;5071269;28;19920;-83
2023/01/04 01:50:08;;;;;;;;;;;;;;;10.83;76.85;102384.97;5087604;28;19955;-83
2023/01/04 01:52:34;;;;;;;;;;;;;;;10.83;76.67;102381.47;5071991;28;19916;-83
2023/01/04 01:55:00;;;;;;;;;;;;;;;10.84;76.58;102383.25;5085652;28;19949;-85
2023/01/04 01:57:26;;;;;;;;;;;;;;;10.86;76.46;102384.31;5053700;28;19925;-85
2023/01/04 01:59:52;;;;;;;;;;;;;;;10.84;76.73;102381.59;5086933;28;19916;-85
2023/01/04 02:02:17;;;;;;;;;;;;;;;10.84;76.85;102380.66;5086558;28;19924;-85
2023/01/04 02:04:43;;;;;;;;;;;;;;;10.86;76.42;102384.31;5053008;28;19917;-83
2023/01/04 02:07:09;;;;;;;;;;;;;;;10.83;76.90;102384.97;5077325;28;19931;-83
2023/01/04 02:09:34;;;;;;;;;;;;;;;10.83;76.91;102379.75;5086228;28;19920;-84
2023/01/04 02:12:00;;;;;;;;;;;;;;;10.83;76.65;102395.44;5086512;28;20499;-84
2023/01/04 02:14:28;;;;;;;;;;;;;;;10.81;76.82;102381.34;5086033;28;20369;-85
2023/01/04 02:17:03;;;;;;;;;;;;;;;10.84;76.62;102388.50;5078560;28;19928;-85
2023/01/04 02:19:47;;;;;;;;;;;;;;;10.82;76.55;102385.78;5051775;28;19920;-84
2023/01/04 02:22:19;;;;;;;;;;;;;;;10.83;76.54;102384.06;5061147;28;19917;-84
2023/01/04 02:24:52;;;;;;;;;;;;;;;10.83;76.79;102381.47;5070503;28;20390;-84
2023/01/04 02:27:20;;;;;;;;;;;;;;;10.83;76.61;102384.06;5077323;28;20010;-84
2023/01/04 02:29:46;;;;;;;;;;;;;;;10.83;76.47;102386.69;5085050;28;20065;-86
2023/01/04 02:32:14;;;;;;;;;;;;;;;10.83;76.40;102389.31;5070680;28;19999;-85
2023/01/04 02:34:42;;;;;;;;;;;;;;;10.82;76.40;102387.50;5070701;28;20739;-85
2023/01/04 02:37:23;;;;;;;;;;;;;;;10.83;76.63;102389.31;5069730;28;19921;-85
2023/01/04 02:39:48;;;;;;;;;;;;;;;10.83;76.24;102382.38;5070645;28;19920;-85
2023/01/04 02:42:20;;;;;;;;;;;;;;;10.80;76.80;102387.38;5072824;28;20418;-86
2023/01/04 02:45:03;;;;;;;;;;;;;;;10.81;76.51;102383.94;5078199;28;19921;-86
2023/01/04 02:50:31;;;;;;;;;;;;;;;10.80;76.74;102388.28;5081668;28;19997;-86
2023/01/04 02:52:59;;;;;;;;;;;;;;;10.77;76.42;102388.03;5096175;28;19916;-85
2023/01/04 02:55:25;;;;;;;;;;;;;;;10.79;76.77;102396.91;5085834;28;20308;-85
2023/01/04 02:57:59;;;;;;;;;;;;;;;10.78;76.72;102399.41;5079471;28;19936;-86
2023/01/04 03:06:14;;;;;;;;;;;;;;;10.80;76.64;102396.09;5072461;28;19920;-86
2023/01/04 03:06:24;;;;;;;;;;;;;;;10.80;76.72;102405.66;5088771;28;20007;-85
2023/01/04 03:08:58;;;;;;;;;;;;;;;10.79;76.62;102404.75;5111165;28;19924;-85
2023/01/04 03:14:11;;;;;;;;;;;;;;;10.82;76.40;102411.00;5088657;28;19978;-83
2023/01/04 03:16:37;;;;;;;;;;;;;;;10.79;76.29;102411.66;5073102;28;19921;-84
2023/01/04 03:19:08;;;;;;;;;;;;;;;10.79;76.28;102411.66;5083133;28;19920;-83
2023/01/04 03:21:34;;;;;;;;;;;;;;;10.81;76.37;102412.69;5065153;28;19921;-84
2023/01/04 03:35:23;;;;;;;;;;;;;;;10.81;76.25;102425.75;5101277;28;19931;-84
2023/01/04 03:49:24;;;;;;;;;;;;;;;10.78;76.29;102425.53;5069412;28;19951;-84
2023/01/04 03:51:50;;;;;;;;;;;;;;;10.79;76.17;102429.94;5073357;28;19979;-85
2023/01/04 03:54:16;;;;;;;;;;;;;;;10.80;76.27;102434.41;5105423;28;19920;-84
2023/01/04 03:56:41;;;;;;;;;;;;;;;10.80;76.41;102434.41;5071919;28;19920;-84
2023/01/04 03:59:08;;;;;;;;;;;;;;;10.78;76.42;102435.97;5100103;28;19950;-84
2023/01/04 04:01:33;;;;;;;;;;;;;;;10.78;76.43;102438.59;5101317;28;19923;-84
2023/01/04 04:09:26;;;;;;;;;;;;;;;10.77;76.24;102441.97;5064084;28;19987;-84
2023/01/04 04:11:53;;;;;;;;;;;;;;;10.75;76.43;102444.50;5073532;28;19928;-84
2023/01/04 04:14:18;;;;;;;;;;;;;;;10.78;76.48;102441.22;5072231;28;19924;-84
2023/01/04 04:16:44;;;;;;;;;;;;;;;10.78;76.34;102446.44;5113374;27;19924;-84
2023/01/04 04:19:09;;;;;;;;;;;;;;;10.76;76.40;102448.00;5074987;28;19924;-83
2023/01/04 04:21:34;;;;;;;;;;;;;;;10.77;76.08;102449.81;5071618;28;19967;-83
2023/01/04 04:24:00;;;;;;;;;;;;;;;10.77;76.19;102452.44;5070085;28;19916;-84
2023/01/04 04:26:25;;;;;;;;;;;;;;;10.78;76.05;102459.50;5078094;28;19920;-84
2023/01/04 04:28:51;;;;;;;;;;;;;;;10.78;76.25;102462.13;5057465;28;20431;-83
2023/01/04 04:31:16;;;;;;;;;;;;;;;10.79;75.96;102466.53;5061197;28;20375;-83
2023/01/04 04:33:42;;;;;;;;;;;;;;;10.75;76.37;102467.06;5067652;28;19917;-83
2023/01/04 04:36:07;;;;;;;;;;;;;;;10.76;76.08;102477.66;5054432;28;19929;-83
2023/01/04 04:38:33;;;;;;;;;;;;;;;10.77;76.14;102475.94;5032693;28;19917;-83
2023/01/04 04:43:42;;;;;;;;;;;;;;;10.76;76.32;102476.75;5052175;28;19927;-83
2023/01/04 04:46:08;;;;;;;;;;;;;;;10.76;76.07;102480.28;5052398;28;19917;-84
2023/01/04 04:48:33;;;;;;;;;;;;;;;10.73;76.14;102481.72;5052500;28;20394;-83
2023/01/04 04:50:59;;;;;;;;;;;;;;;10.74;76.35;102481.84;5060847;28;19920;-84
2023/01/04 04:53:24;;;;;;;;;;;;;;;10.74;76.36;102486.19;5052337;28;20068;-84
2023/01/04 04:55:50;;;;;;;;;;;;;;;10.74;76.39;102486.19;5052786;28;20383;-83
2023/01/04 04:58:16;;;;;;;;;;;;;;;10.74;76.21;102491.41;5068332;28;19917;-83
2023/01/04 05:00:41;;;;;;;;;;;;;;;10.75;76.08;102501.97;5064961;28;19955;-83
2023/01/04 05:03:06;;;;;;;;;;;;;;;10.75;76.21;102503.66;5034274;28;19917;-83
2023/01/04 05:05:32;;;;;;;;;;;;;;;10.74;76.17;102502.75;5070948;28;20379;-84
2023/01/04 05:07:57;;;;;;;;;;;;;;;10.72;76.07;102508.66;5067895;28;20397;-84
2023/01/04 05:10:23;;;;;;;;;;;;;;;10.70;76.11;102498.06;5057441;28;20016;-83
2023/01/04 05:13:04;;;;;;;;;;;;;;;10.74;75.96;102496.63;5058875;28;19920;-82
2023/01/04 05:15:37;;;;;;;;;;;;;;;10.75;76.00;102506.28;5069645;28;19921;-83
2023/01/04 05:18:03;;;;;;;;;;;;;;;10.76;75.72;102500.28;5060455;28;19970;-83
2023/01/04 05:20:29;;;;;;;;;;;;;;;10.74;76.21;102505.38;5067176;28;19929;-83
2023/01/04 05:22:54;;;;;;;;;;;;;;;10.71;76.25;102505.13;5051032;28;20020;-83
2023/01/04 05:25:19;;;;;;;;;;;;;;;10.76;75.79;102502.88;5051520;28;20653;-83
2023/01/04 05:27:45;;;;;;;;;;;;;;;10.71;76.30;102506.81;5050094;28;20398;-83
2023/01/04 05:32:55;;;;;;;;;;;;;;;10.73;75.80;102510.47;5087477;28;19970;-83
2023/01/04 05:35:20;;;;;;;;;;;;;;;10.72;75.88;102516.50;5075699;28;19924;-83
2023/01/04 05:37:48;;;;;;;;;;;;;;;10.71;75.86;102515.59;5069539;28;20171;-84
2023/01/04 05:40:13;;;;;;;;;;;;;;;10.71;75.97;102523.44;5072053;28;19924;-85
2023/01/04 05:42:39;;;;;;;;;;;;;;;10.73;75.73;102524.47;5071420;28;19974;-85
2023/01/04 05:45:05;;;;;;;;;;;;;;;10.70;75.89;102529.41;5082067;28;20562;-83
2023/01/04 05:47:30;;;;;;;;;;;;;;;10.70;75.95;102531.13;5086864;28;20607;-83
2023/01/04 05:49:56;;;;;;;;;;;;;;;10.72;76.12;102529.56;5071443;28;19923;-83
2023/01/04 05:52:21;;;;;;;;;;;;;;;10.73;75.82;102518.31;5071029;28;20404;-89
2023/01/04 05:54:46;;;;;;;;;;;;;;;10.72;76.03;102526.94;5087716;28;19923;-85
2023/01/04 05:57:12;;;;;;;;;;;;;;;10.70;76.05;102523.28;5070573;28;19924;-86
2023/01/04 05:59:37;;;;;;;;;;;;;;;10.70;75.76;102529.41;5054707;28;19921;-85
2023/01/04 06:02:03;;;;;;;;;;;;;;;10.70;75.99;102532.03;5070958;28;20377;-85
2023/01/04 06:04:29;;;;;;;;;;;;;;;10.68;76.14;102533.59;5071826;28;19921;-84
2023/01/04 06:06:54;;;;;;;;;;;;;;;10.71;76.08;102540.78;5074331;28;19916;-85
2023/01/04 06:09:19;;;;;;;;;;;;;;;10.69;75.72;102537.13;5070657;28;19924;-84
2023/01/04 06:11:45;;;;;;;;;;;;;;;10.69;76.09;102539.75;5052913;28;19912;-85
2023/01/04 06:14:10;;;;;;;;;;;;;;;10.70;76.22;102538.97;5071024;28;19960;-86
2023/01/04 06:16:36;;;;;;;;;;;;;;;10.69;76.10;102543.28;5094767;28;20516;-84
2023/01/04 06:19:02;;;;;;;;;;;;;;;10.69;76.21;102539.75;5064738;28;19921;-85
2023/01/04 06:21:28;;;;;;;;;;;;;;;10.69;76.07;102537.13;5052965;28;19923;-85
2023/01/04 06:23:53;;;;;;;;;;;;;;;10.71;75.67;102541.72;5070248;28;20011;-86
2023/01/04 06:26:19;;;;;;;;;;;;;;;10.67;75.75;102538.69;5075754;28;20294;-87
2023/01/04 06:28:44;;;;;;;;;;;;;;;10.68;75.79;102536.22;5078060;28;19967;-86
2023/01/04 06:31:10;;;;;;;;;;;;;;;10.66;76.05;102544.72;5087219;28;20019;-85
2023/01/04 06:33:36;;;;;;;;;;;;;;;10.69;76.08;102544.97;5092920;28;20301;-86
2023/01/04 06:36:01;;;;;;;;;;;;;;;10.66;75.96;102545.63;5104634;28;19924;-86
2023/01/04 06:38:26;;;;;;;;;;;;;;;10.67;75.79;102551.75;5071661;28;19920;-86
2023/01/04 06:40:52;;;;;;;;;;;;;;;10.68;76.00;102544.06;5070856;28;19924;-86
2023/01/04 06:43:17;;;;;;;;;;;;;;;10.68;75.88;102551.91;5085922;28;19978;-86
2023/01/04 06:45:43;;;;;;;;;;;;;;;10.72;75.74;102547.84;5073123;28;19928;-85
2023/01/04 06:48:08;;;;;;;;;;;;;;;10.70;75.77;102559.88;5098660;28;19920;-85
2023/01/04 06:50:34;;;;;;;;;;;;;;;10.67;76.03;102565.78;5091453;28;20351;-86
2023/01/04 06:52:59;;;;;;;;;;;;;;;10.64;75.92;102562.88;5088145;28;19935;-86
2023/01/04 06:55:24;;;;;;;;;;;;;;;10.68;75.70;102561.44;5091419;28;20398;-86
2023/01/04 06:57:50;;;;;;;;;;;;;;;10.65;76.01;102564.72;5069575;28;20312;-86
2023/01/04 07:00:17;;;;;;;;;;;;;;;10.61;76.21;102559.13;5088172;28;20395;-86
2023/01/04 07:02:42;;;;;;;;;;;;;;;10.66;75.88;102573.47;5069569;28;19928;-87
2023/01/04 07:05:08;;;;;;;;;;;;;;;10.65;76.04;102569.06;5057129;28;19917;-88
2023/01/04 07:07:34;;;;;;;;;;;;;;;10.63;75.97;102571.53;5084228;28;19954;-86
2023/01/04 07:09:59;;;;;;;;;;;;;;;10.65;75.81;102572.56;5091513;28;19932;-86
2023/01/04 07:12:25;;;;;;;;;;;;;;;10.65;75.70;102575.19;5052664;28;19920;-86
2023/01/04 07:14:50;;;;;;;;;;;;;;;10.66;75.61;102570.84;5069756;28;19921;-86
2023/01/04 07:17:16;;;;;;;;;;;;;;;10.63;76.05;102576.75;5086766;28;19917;-85
2023/01/04 07:19:41;;;;;;;;;;;;;;;10.65;76.05;102577.78;5085329;28;20393;-86
2023/01/04 07:22:07;;;;;;;;;;;;;;;10.65;75.78;102584.72;5085862;28;19920;-87
2023/01/04 07:24:32;;;;;;;;;;;;;;;10.69;75.64;102589.38;5085554;28;20320;-86
2023/01/04 07:27:01;;;;;;;;;;;;;;;10.69;75.76;102584.16;5080484;28;19919;-87
2023/01/04 07:29:28;;;;;;;;;;;;;;;10.70;75.62;102601.69;5084026;28;19920;-88
2023/01/04 07:31:54;;;;;;;;;;;;;;;10.69;75.41;102599.84;5066317;28;19989;-87
2023/01/04 07:34:20;;;;;;;;;;;;;;;10.70;75.52;102612.13;5070058;28;20431;-87
2023/01/04 07:36:46;;;;;;;;;;;;;;;10.65;75.97;102609.16;5086252;28;19920;-87
2023/01/04 07:39:11;;;;;;;;;;;;;;;10.64;76.02;102609.91;5069250;28;19946;-87
2023/01/04 07:41:37;;;;;;;;;;;;;;;10.66;75.65;102607.44;5074485;28;19939;-87
2023/01/04 07:44:03;;;;;;;;;;;;;;;10.69;75.42;102607.69;5089669;28;19921;-87
2023/01/04 07:46:28;;;;;;;;;;;;;;;10.68;75.74;102611.09;5079348;28;19917;-87
2023/01/04 07:48:54;;;;;;;;;;;;;;;10.69;75.46;102610.28;5086440;28;20480;-88
2023/01/04 07:51:19;;;;;;;;;;;;;;;10.67;75.83;102614.47;5069221;28;20244;-87
2023/01/04 07:53:45;;;;;;;;;;;;;;;10.66;75.83;102616.19;5072904;28;20397;-87
2023/01/04 07:56:10;;;;;;;;;;;;;;;10.67;76.02;102615.41;5074235;28;19939;-87
2023/01/04 07:58:38;;;;;;;;;;;;;;;10.66;76.03;102621.41;5091673;28;20137;-87
2023/01/04 08:01:09;;;;;;;;;;;;;;;10.66;75.99;102616.19;5083903;28;19966;-87
2023/01/04 08:03:34;;;;;;;;;;;;;;;10.65;76.18;102619.59;5089114;28;20450;-87
2023/01/04 08:06:03;;;;;;;;;;;;;;;10.67;75.95;102612.81;5073680;28;19925;-87
2023/01/04 08:08:29;;;;;;;;;;;;;;;10.65;76.00;102610.84;5089476;28;19917;-87
2023/01/04 08:10:54;;;;;;;;;;;;;;;10.65;75.76;102611.75;5089322;28;19920;-87
2023/01/04 08:13:20;;;;;;;;;;;;;;;10.65;75.87;102611.75;5089427;28;19920;-87
2023/01/04 08:15:51;;;;;;;;;;;;;;;10.62;75.78;102614.09;5073122;28;20287;-87
2023/01/04 08:18:16;;;;;;;;;;;;;;;10.57;76.44;102616.34;5055595;28;19973;-87
2023/01/04 08:20:41;;;;;;;;;;;;;;;10.67;76.04;102625.88;5089297;28;19924;-87
2023/01/04 08:23:07;;;;;;;;;;;;;;;10.66;75.58;102624.03;5071783;28;20356;-87
2023/01/04 08:25:32;;;;;;;;;;;;;;;10.66;76.15;102616.19;5088543;28;20455;-87
2023/01/04 08:27:58;;;;;;;;;;;;;;;10.68;75.68;102616.31;5077787;28;20398;-87
2023/01/04 08:30:23;;;;;;;;;;;;;;;10.70;75.85;102617.38;5079506;28;19960;-88
2023/01/04 08:32:49;;;;;;;;;;;;;;;10.70;75.86;102613.03;5065227;28;19921;-88
2023/01/04 08:35:14;;;;;;;;;;;;;;;10.67;75.70;102618.03;5073164;28;20444;-87
2023/01/04 08:37:40;;;;;;;;;;;;;;;10.73;75.85;102617.59;5055191;28;19927;-88
2023/01/04 08:40:06;;;;;;;;;;;;;;;10.74;75.58;102617.75;5088746;28;20054;-87
2023/01/04 08:42:31;;;;;;;;;;;;;;;10.73;75.73;102615.94;5088613;28;19917;-88
2023/01/04 08:44:57;;;;;;;;;;;;;;;10.77;75.38;102610.16;5073114;28;19916;-87
2023/01/04 08:47:22;;;;;;;;;;;;;;;10.77;75.59;102617.06;5071521;28;20005;-88
2023/01/04 08:49:48;;;;;;;;;;;;;;;10.74;75.42;102617.75;5072020;28;19923;-88
2023/01/04 08:52:14;;;;;;;;;;;;;;;10.78;75.41;102617.22;5054679;28;20515;-88
2023/01/04 08:54:40;;;;;;;;;;;;;;;10.79;75.51;102616.44;5092211;28;19947;-87
2023/01/04 08:57:05;;;;;;;;;;;;;;;10.79;75.39;102615.50;5054696;28;20401;-87
2023/01/04 08:59:30;;;;;;;;;;;;;;;10.80;75.37;102615.63;5044541;28;19939;-87
2023/01/04 09:01:57;;;;;;;;;;;;;;;10.81;75.35;102616.53;5086462;28;20385;-88
2023/01/04 09:04:22;;;;;;;;;;;;;;;10.80;75.40;102612.13;5063701;28;20384;-88
2023/01/04 09:06:48;;;;;;;;;;;;;;;10.79;75.54;102608.59;5071005;28;19939;-86
2023/01/04 09:09:13;;;;;;;;;;;;;;;10.81;75.39;102611.31;5054728;28;19917;-87
2023/01/04 09:11:39;;;;;;;;;;;;;;;10.80;75.25;102609.50;5088345;28;20641;-88
2023/01/04 09:14:07;;;;;;;;;;;;;;;10.80;75.32;102597.34;5054828;28;19921;-88
2023/01/04 09:16:33;;;;;;;;;;;;;;;10.82;75.13;102589.63;5088480;28;19917;-89
2023/01/04 09:18:58;;;;;;;;;;;;;;;10.79;75.38;102586.75;5088363;28;19916;-88
2023/01/04 09:21:23;;;;;;;;;;;;;;;10.79;75.64;102594.59;5071402;28;19916;-89
2023/01/04 09:23:49;;;;;;;;;;;;;;;10.80;75.28;102588.59;5088295;28;20298;-88
2023/01/04 09:26:20;;;;;;;;;;;;;;;10.79;75.32;102595.53;5072686;28;19925;-88
2023/01/04 09:28:46;;;;;;;;;;;;;;;10.79;75.27;102591.97;5087848;28;19924;-88
2023/01/04 09:31:15;;;;;;;;;;;;;;;10.82;75.17;102589.63;5088218;28;19917;-89
2023/01/04 09:33:41;;;;;;;;;;;;;;;10.80;75.24;102591.22;5088173;28;20055;-88
2023/01/04 09:36:07;;;;;;;;;;;;;;;10.80;75.27;102585.97;5088077;28;19962;-89
2023/01/04 09:38:32;;;;;;;;;;;;;;;10.79;75.36;102584.13;5088213;28;19916;-88
2023/01/04 09:41:13;;;;;;;;;;;;;;;10.82;75.37;102575.66;5075505;28;19916;-88
2023/01/04 09:43:43;;;;;;;;;;;;;;;10.80;75.44;102570.31;5087353;28;20285;-89
2023/01/04 09:46:09;;;;;;;;;;;;;;;10.84;75.34;102579.28;5092158;28;20408;-88
2023/01/04 09:48:34;;;;;;;;;;;;;;;10.80;75.22;102570.31;5071026;28;19917;-88
2023/01/04 09:51:01;;;;;;;;;;;;;;;10.80;75.22;102568.59;5087725;28;20011;-87
2023/01/04 09:53:31;;;;;;;;;;;;;;;10.83;75.21;102562.69;5082931;28;20370;-88
2023/01/04 09:56:01;;;;;;;;;;;;;;;10.84;75.09;102572.38;5087960;28;19950;-88
2023/01/04 09:58:31;;;;;;;;;;;;;;;10.83;75.18;102559.19;5082531;28;19924;-88
2023/01/04 10:01:01;;;;;;;;;;;;;;;10.84;75.17;102568.81;5099467;28;19917;-88
2023/01/04 10:03:28;;;;;;;;;;;;;;;10.84;75.05;102572.38;5087430;28;20666;-87
2023/01/04 10:05:55;;;;;;;;;;;;;;;10.83;75.50;102580.09;5087705;28;19916;-87
2023/01/04 10:08:20;;;;;;;;;;;;;;;10.82;75.54;102575.66;5087541;28;19967;-86
2023/01/04 10:10:49;;;;;;;;;;;;;;;10.83;74.98;102567.03;5088471;28;19916;-87
2023/01/04 10:13:18;;;;;;;;;;;;;;;10.85;75.08;102574.19;5080940;28;19978;-87
2023/01/04 10:15:52;;;;;;;;;;;;;;;10.86;75.39;102572.47;5094621;28;20398;-87
2023/01/04 10:18:34;;;;;;;;;;;;;;;10.83;75.08;102578.38;5088371;28;19917;-88
2023/01/04 10:21:08;;;;;;;;;;;;;;;10.82;75.01;102573.06;5075393;28;19917;-88
2023/01/04 10:23:33;;;;;;;;;;;;;;;10.85;75.08;102578.50;5088001;28;20317;-88
2023/01/04 10:26:08;;;;;;;;;;;;;;;10.83;75.04;102567.91;5072123;28;19920;-88
2023/01/04 10:28:52;;;;;;;;;;;;;;;10.82;75.20;102575.66;5097407;28;20484;-87
2023/01/04 10:31:23;;;;;;;;;;;;;;;10.83;74.84;102561.78;5071423;28;19920;-87
2023/01/04 10:33:49;;;;;;;;;;;;;;;10.82;75.21;102578.28;5088351;28;20011;-87
2023/01/04 10:36:20;;;;;;;;;;;;;;;10.87;74.80;102572.63;5087117;28;19947;-86
2023/01/04 10:38:46;;;;;;;;;;;;;;;10.88;74.64;102569.22;5070262;28;19952;-88
2023/01/04 10:41:20;;;;;;;;;;;;;;;10.82;74.63;102571.34;5091860;28;20412;-88
2023/01/04 10:43:57;;;;;;;;;;;;;;;10.84;74.78;102569.78;5086886;28;20386;-87
2023/01/04 10:46:27;;;;;;;;;;;;;;;10.85;75.30;102578.50;5076114;28;20366;-88
2023/01/04 10:49:13;;;;;;;;;;;;;;;10.88;74.81;102566.63;5076351;28;19952;-88
2023/01/04 10:51:41;;;;;;;;;;;;;;;10.84;74.55;102566.22;5049287;28;19965;-88
2023/01/04 10:54:24;;;;;;;;;;;;;;;10.89;74.80;102568.44;5066968;28;19916;-88
2023/01/04 10:56:51;;;;;;;;;;;;;;;10.89;74.89;102570.13;5067587;28;19924;-85
2023/01/04 10:59:20;;;;;;;;;;;;;;;10.75;74.57;102577.78;5105526;28;20397;-87
2023/01/04 11:02:03;;;;;;;;;;;;;;;10.67;75.23;102571.00;5075217;28;20424;-87
2023/01/04 11:04:37;;;;;;;;;;;;;;;10.65;75.52;102569.94;5070957;28;19916;-87
2023/01/04 11:07:07;;;;;;;;;;;;;;;10.75;75.20;102574.22;5091618;28;19951;-87
2023/01/04 11:09:34;;;;;;;;;;;;;;;10.75;75.30;102582.06;5070928;28;19963;-88
2023/01/04 11:11:59;;;;;;;;;;;;;;;10.74;75.12;102582.88;5086573;28;20519;-87
2023/01/04 11:14:25;;;;;;;;;;;;;;;10.71;75.53;102580.91;5066259;28;20015;-87
2023/01/04 11:16:51;;;;;;;;;;;;;;;10.71;75.40;102579.97;5089374;28;20309;-88
2023/01/04 11:19:17;;;;;;;;;;;;;;;10.74;75.50;102588.09;5086556;28;19924;-86
2023/01/04 11:21:45;;;;;;;;;;;;;;;10.82;75.17;102580.88;5074400;28;19928;-87
2023/01/04 11:24:11;;;;;;;;;;;;;;;10.82;75.25;102579.19;5065711;28;20311;-87
2023/01/04 11:26:42;;;;;;;;;;;;;;;10.76;74.94;102582.19;5069568;28;19916;-87
2023/01/04 11:29:26;;;;;;;;;;;;;;;10.70;75.18;102586.91;5088670;28;20430;-87
2023/01/04 11:32:13;;;;;;;;;;;;;;;10.82;75.00;102584.41;5090475;28;19917;-87
2023/01/04 11:34:46;;;;;;;;;;;;;;;10.83;74.50;102586.22;5088446;28;20404;-87
2023/01/04 11:37:23;;;;;;;;;;;;;;;10.79;74.81;102586.75;5089870;28;20367;-87
2023/01/04 11:39:49;;;;;;;;;;;;;;;10.88;74.69;102586.59;5079635;28;19999;-87
2023/01/04 11:42:20;;;;;;;;;;;;;;;10.90;74.66;102588.56;5056315;28;20013;-86
2023/01/04 11:44:58;;;;;;;;;;;;;;;10.78;74.37;102584.94;5089803;28;19920;-85
2023/01/04 11:47:24;;;;;;;;;;;;;;;10.76;74.55;102584.81;5076460;28;20382;-85
2023/01/04 11:49:49;;;;;;;;;;;;;;;10.67;74.99;102586.66;5073636;28;19973;-86
2023/01/04 11:52:31;;;;;;;;;;;;;;;10.61;75.36;102588.78;5072768;28;19920;-86
2023/01/04 11:55:15;;;;;;;;;;;;;;;10.69;75.19;102587.72;5091753;28;19921;-86
2023/01/04 11:57:41;;;;;;;;;;;;;;;10.80;75.48;102586.88;5076566;28;19916;-90
2023/01/04 12:00:16;;;;;;;;;;;;;;;10.67;75.29;102584.06;5056277;28;20306;-85
2023/01/04 12:02:41;;;;;;;;;;;;;;;10.83;74.94;102595.75;5073170;28;19916;-85
2023/01/04 12:05:15;;;;;;;;;;;;;;;10.84;75.02;102594.97;5088360;28;19923;-85
2023/01/04 12:07:40;;;;;;;;;;;;;;;10.77;74.83;102604.00;5093015;28;19925;-86
2023/01/04 12:10:14;;;;;;;;;;;;;;;10.78;75.13;102598.00;5057237;28;19923;-85
2023/01/04 12:12:40;;;;;;;;;;;;;;;10.69;74.94;102603.38;5065088;28;19924;-85
2023/01/04 12:15:12;;;;;;;;;;;;;;;10.70;75.46;102599.97;5089172;28;19939;-87
2023/01/04 12:17:42;;;;;;;;;;;;;;;10.74;75.39;102590.69;5089249;28;19917;-86
2023/01/04 12:20:12;;;;;;;;;;;;;;;10.70;75.09;102589.53;5089178;28;19917;-85
2023/01/04 12:22:39;;;;;;;;;;;;;;;10.70;75.71;102592.13;5083307;28;19917;-86
2023/01/04 12:25:06;;;;;;;;;;;;;;;10.76;75.02;102596.97;5087012;28;19920;-84
2023/01/04 12:27:32;;;;;;;;;;;;;;;10.70;75.31;102601.69;5055773;28;20019;-84
2023/01/04 12:30:02;;;;;;;;;;;;;;;10.67;74.67;102599.75;5089217;28;19996;-85
2023/01/04 12:32:28;;;;;;;;;;;;;;;10.69;75.22;102602.44;5086820;28;19920;-85
2023/01/04 12:34:53;;;;;;;;;;;;;;;10.67;74.67;102604.97;5073813;28;19924;-86
2023/01/04 12:37:41;;;;;;;;;;;;;;;10.72;75.26;102608.84;5072840;28;19966;-86
2023/01/04 12:40:25;;;;;;;;;;;;;;;10.72;75.11;102607.94;5069747;28;19921;-86
2023/01/04 12:43:09;;;;;;;;;;;;;;;10.65;75.11;102613.47;5069875;28;19944;-87
2023/01/04 12:45:34;;;;;;;;;;;;;;;10.77;75.20;102609.22;5069772;28;19924;-87
2023/01/04 12:51:05;;;;;;;;;;;;;;;10.84;75.03;102616.81;5052365;28;20071;-86
2023/01/04 12:53:50;;;;;;;;;;;;;;;10.89;74.35;102612.88;5039931;28;19955;-84
2023/01/04 12:56:54;;;;;;;;;;;;;;;10.94;74.43;102613.22;5054517;28;19925;-84
2023/01/04 12:59:45;;;;;;;;;;;;;;;10.95;74.53;102626.44;5031506;28;20021;-84
2023/01/04 13:02:17;;;;;;;;;;;;;;;10.83;74.30;102628.03;5030956;28;19925;-84
2023/01/04 13:04:43;;;;;;;;;;;;;;;10.74;74.56;102622.06;5025316;28;20007;-83
2023/01/04 13:07:19;;;;;;;;;;;;;;;10.89;74.33;102625.03;5070547;28;20003;-82
2023/01/04 13:09:47;;;;;;;;;;;;;;;10.88;74.31;102628.41;5077248;28;20290;-84
2023/01/04 13:12:14;;;;;;;;;;;;;;;10.95;74.41;102636.00;5036376;28;20330;-83
2023/01/04 13:14:43;;;;;;;;;;;;;;;10.97;73.94;102627.47;5052889;28;20095;-84
2023/01/04 13:17:14;;;;;;;;;;;;;;;10.96;74.56;102622.13;5065124;28;20000;-84
2023/01/04 13:19:40;;;;;;;;;;;;;;;10.91;74.11;102618.22;5084360;28;19923;-84
2023/01/04 13:22:16;;;;;;;;;;;;;;;10.93;74.14;102617.56;5089708;28;19917;-83
2023/01/04 13:24:42;;;;;;;;;;;;;;;10.85;74.46;102621.25;5081124;28;19920;-85